Time;durP1;ratioP1;P1;durP2;ratioP2;P2;SDS_P1;SDS_P2;PMS_P1;PMS_P2;Temp;Humidity;BMP_temperature;BMP_pressure;BME280_temperature;BME280_humidity;BME280_pressure;Samples;Min_cycle;Max_cycle;Signal;HPM_P1;HPM_P2
2022/06/26 04:00:10;;;;;;;1.80;1.70;;;20.80;99.90;;;;;;6129234;23;20455;31
2022/06/26 04:02:39;;;;;;;1.43;1.33;;;20.80;99.90;;;;;;4957564;29;20478;-64
2022/06/26 04:05:07;;;;;;;1.70;1.60;;;20.80;99.90;;;;;;4958465;29;20506;-64
2022/06/26 04:07:33;;;;;;;1.50;1.50;;;20.80;99.90;;;;;;4958576;29;20530;-64
2022/06/26 04:10:00;;;;;;;1.50;1.40;;;20.80;99.90;;;;;;4958512;29;20483;-64
2022/06/26 04:12:27;;;;;;;1.30;1.30;;;20.80;99.90;;;;;;4958579;29;20475;-64
2022/06/26 04:14:54;;;;;;;1.20;1.20;;;20.80;99.90;;;;;;4958310;29;20946;-64
2022/06/26 04:17:21;;;;;;;2.10;1.80;;;20.90;99.90;;;;;;4958518;29;20965;-64
2022/06/26 04:19:49;;;;;;;2.80;1.27;;;20.90;99.90;;;;;;4958576;29;20825;-64
2022/06/26 04:22:16;;;;;;;1.37;1.23;;;20.90;99.90;;;;;;4958410;29;20600;-64
2022/06/26 04:24:43;;;;;;;1.80;1.10;;;20.90;99.90;;;;;;4958351;29;20514;-64
2022/06/26 04:27:10;;;;;;;2.10;1.60;;;21.00;99.90;;;;;;4958369;29;20462;-64
2022/06/26 04:29:36;;;;;;;1.80;1.70;;;21.00;99.90;;;;;;4958100;29;20476;-64
2022/06/26 04:32:04;;;;;;;1.50;1.40;;;21.00;99.90;;;;;;4958105;29;20475;-65
2022/06/26 04:34:30;;;;;;;1.30;1.30;;;21.10;99.90;;;;;;4958193;29;20514;-65
2022/06/26 04:36:58;;;;;;;1.97;1.87;;;21.10;99.90;;;;;;4958263;29;20459;-64
2022/06/26 04:39:25;;;;;;;1.77;1.73;;;21.10;99.90;;;;;;4958059;29;20455;-64
2022/06/26 04:41:52;;;;;;;1.73;1.63;;;21.10;99.90;;;;;;4958157;29;20479;-65
2022/06/26 04:44:18;;;;;;;2.33;2.17;;;21.10;99.90;;;;;;4958032;29;20462;-65
2022/06/26 04:46:46;;;;;;;2.70;2.30;;;21.10;99.90;;;;;;4957864;28;20550;-64
2022/06/26 04:49:13;;;;;;;2.50;1.80;;;21.10;99.90;;;;;;4958038;29;20531;-64
2022/06/26 04:51:40;;;;;;;1.73;1.60;;;21.10;99.90;;;;;;4957495;29;21057;-64
2022/06/26 04:54:10;;;;;;;2.03;1.80;;;21.10;99.90;;;;;;4957636;29;20495;-64
2022/06/26 04:56:38;;;;;;;2.40;1.83;;;21.10;99.90;;;;;;4957075;28;20466;-64
2022/06/26 04:59:06;;;;;;;2.03;1.93;;;21.20;99.90;;;;;;4957963;29;20502;-64
2022/06/26 05:01:33;;;;;;;1.90;1.80;;;21.20;99.90;;;;;;4957505;29;20494;-64
2022/06/26 05:04:00;;;;;;;1.60;1.60;;;21.30;99.90;;;;;;4957882;29;20455;-64
2022/06/26 05:06:26;;;;;;;2.73;1.67;;;21.40;99.90;;;;;;4957780;29;20466;-64
2022/06/26 05:08:53;;;;;;;2.07;1.93;;;21.40;99.90;;;;;;4957679;29;20455;-64
2022/06/26 05:11:21;;;;;;;1.93;1.83;;;21.40;99.90;;;;;;4957417;29;20983;-64
2022/06/26 05:13:48;;;;;;;1.33;1.23;;;21.50;99.90;;;;;;4957772;28;20447;-64
2022/06/26 05:16:15;;;;;;;2.07;1.97;;;21.50;99.90;;;;;;4957485;28;20459;-64
2022/06/26 05:18:42;;;;;;;1.40;1.40;;;21.60;99.90;;;;;;4957129;29;20942;-64
2022/06/26 05:21:08;;;;;;;3.47;2.00;;;21.60;99.90;;;;;;4957496;29;20475;-64
2022/06/26 05:23:35;;;;;;;1.70;1.70;;;21.60;99.90;;;;;;4957430;29;20456;-64
2022/06/26 05:26:02;;;;;;;2.07;1.97;;;21.70;99.90;;;;;;4957638;29;20553;-64
2022/06/26 05:28:30;;;;;;;2.60;1.70;;;21.70;99.90;;;;;;4957022;29;20931;-66
2022/06/26 05:30:57;;;;;;;1.90;1.80;;;21.80;99.90;;;;;;4957160;28;20519;-65
2022/06/26 05:33:23;;;;;;;1.60;1.60;;;21.90;99.90;;;;;;4957135;29;20464;-65
2022/06/26 05:35:50;;;;;;;3.03;2.00;;;21.80;99.90;;;;;;4957197;29;20466;-65
2022/06/26 05:38:17;;;;;;;2.20;2.10;;;21.90;99.90;;;;;;4957178;29;20462;-65
2022/06/26 05:40:44;;;;;;;2.57;2.37;;;21.90;99.90;;;;;;4956946;29;20478;-65
2022/06/26 05:43:10;;;;;;;2.27;2.07;;;22.00;99.90;;;;;;4956984;29;20592;-65
2022/06/26 05:45:39;;;;;;;2.03;1.93;;;22.00;99.90;;;;;;4956954;29;20456;-65
2022/06/26 05:48:06;;;;;;;2.17;2.07;;;22.00;99.90;;;;;;4957045;29;20863;-65
2022/06/26 05:50:33;;;;;;;2.13;2.03;;;22.10;99.90;;;;;;4956774;29;20487;-66
2022/06/26 05:53:00;;;;;;;2.63;2.43;;;22.10;99.90;;;;;;4956892;28;20459;-66
2022/06/26 05:55:27;;;;;;;2.57;2.37;;;22.10;99.90;;;;;;4956929;29;20455;-66
2022/06/26 05:57:54;;;;;;;2.83;2.67;;;22.20;99.90;;;;;;4957191;29;20511;-65
2022/06/26 06:00:21;;;;;;;2.53;2.43;;;22.30;99.90;;;;;;4957003;29;20463;-65
2022/06/26 06:02:49;;;;;;;2.63;2.43;;;22.30;99.90;;;;;;4957054;29;20933;-65
2022/06/26 06:05:15;;;;;;;2.50;2.40;;;22.40;99.90;;;;;;4956687;28;20942;-66
2022/06/26 06:07:42;;;;;;;2.80;2.60;;;22.40;99.90;;;;;;4957104;28;20482;-65
2022/06/26 06:10:10;;;;;;;2.70;2.60;;;22.40;99.90;;;;;;4957002;29;20490;-66
2022/06/26 06:12:37;;;;;;;2.90;2.80;;;22.40;99.90;;;;;;4956697;29;20482;-66
2022/06/26 06:15:05;;;;;;;2.60;2.50;;;22.50;99.90;;;;;;4956370;29;20942;-65
2022/06/26 06:17:37;;;;;;;2.73;2.60;;;22.50;99.90;;;;;;4956523;29;20456;-66
2022/06/26 06:20:09;;;;;;;3.83;2.93;;;22.70;99.90;;;;;;4956539;29;20447;-65
2022/06/26 06:22:36;;;;;;;3.00;2.80;;;22.80;99.90;;;;;;4956857;28;20448;-65
2022/06/26 06:25:03;;;;;;;2.00;1.90;;;22.90;99.90;;;;;;4956479;28;20482;-65
2022/06/26 06:27:29;;;;;;;2.27;1.90;;;23.00;99.90;;;;;;4956323;29;20459;-65
2022/06/26 06:29:56;;;;;;;2.33;2.13;;;23.10;99.90;;;;;;4955882;29;20511;-65
2022/06/26 06:32:23;;;;;;;4.53;2.00;;;23.20;99.90;;;;;;4956448;29;20475;-65
2022/06/26 06:34:49;;;;;;;1.90;1.83;;;23.40;99.90;;;;;;4956586;29;20820;-66
2022/06/26 06:37:17;;;;;;;1.60;1.60;;;23.50;99.90;;;;;;4956296;29;20462;-65
2022/06/26 06:39:45;;;;;;;1.80;1.80;;;23.70;99.90;;;;;;4961257;28;20460;-65
2022/06/26 06:42:12;;;;;;;2.50;1.60;;;23.90;99.90;;;;;;4969342;29;20472;-65
2022/06/26 06:44:39;;;;;;;2.27;1.70;;;24.10;99.90;;;;;;4962012;29;20456;-65
2022/06/26 06:47:07;;;;;;;1.70;1.60;;;24.20;99.90;;;;;;4956349;29;21018;-65
2022/06/26 06:49:34;;;;;;;1.70;1.60;;;24.50;99.90;;;;;;4957069;29;20506;-65
2022/06/26 06:52:01;;;;;;;1.63;1.53;;;24.70;99.90;;;;;;4956516;29;20486;-65
2022/06/26 06:54:29;;;;;;;1.53;1.43;;;25.00;99.90;;;;;;4956198;29;20466;-65
2022/06/26 06:56:56;;;;;;;1.60;1.60;;;25.20;99.90;;;;;;4955984;29;20455;-65
2022/06/26 06:59:23;;;;;;;1.93;1.83;;;25.40;99.90;;;;;;4955840;29;20456;-65
2022/06/26 07:01:50;;;;;;;1.73;1.60;;;25.70;99.90;;;;;;4955635;29;20833;-65
2022/06/26 07:04:16;;;;;;;1.40;1.40;;;26.10;99.90;;;;;;4955802;29;20943;-66
2022/06/26 07:06:43;;;;;;;1.80;1.30;;;26.70;99.90;;;;;;4956030;29;20464;-65
2022/06/26 07:09:11;;;;;;;1.47;1.47;;;27.20;99.90;;;;;;4955861;29;20459;-65
2022/06/26 07:11:39;;;;;;;1.70;1.60;;;27.80;99.90;;;;;;4955714;29;20542;-66
2022/06/26 07:14:06;;;;;;;1.50;1.40;;;28.10;99.50;;;;;;4956095;29;20460;-65
2022/06/26 07:16:33;;;;;;;2.40;1.83;;;28.50;97.20;;;;;;4955943;29;20451;-65
2022/06/26 07:18:59;;;;;;;1.47;1.47;;;28.60;95.70;;;;;;4955877;28;20460;-65
2022/06/26 07:21:26;;;;;;;1.30;1.00;;;29.10;94.90;;;;;;4960083;29;21028;-67
2022/06/26 07:23:53;;;;;;;1.20;1.10;;;29.30;92.10;;;;;;4959770;29;20463;-66
2022/06/26 07:26:19;;;;;;;1.10;1.10;;;29.40;90.10;;;;;;4959227;29;20459;-66
2022/06/26 07:28:48;;;;;;;1.00;1.00;;;29.40;89.30;;;;;;4959616;29;20459;-66
2022/06/26 07:31:14;;;;;;;0.97;0.97;;;29.80;88.10;;;;;;4959246;29;20490;-66
2022/06/26 07:36:25;;;;;;;0.90;0.90;;;30.30;86.20;;;;;;4959488;29;20962;-66
2022/06/26 07:38:52;;;;;;;1.17;1.00;;;30.20;83.30;;;;;;4959479;29;20459;-66
2022/06/26 07:41:18;;;;;;;1.00;1.00;;;30.30;81.80;;;;;;4959435;29;20483;-66
2022/06/26 07:43:46;;;;;;;6.53;1.37;;;29.80;80.40;;;;;;4959197;29;20497;-67
2022/06/26 07:46:13;;;;;;;1.17;1.07;;;29.80;82.60;;;;;;4959464;29;20510;-65
2022/06/26 07:48:40;;;;;;;1.53;1.13;;;30.30;83.00;;;;;;4959104;29;20466;-66
2022/06/26 07:51:07;;;;;;;1.20;1.20;;;30.60;81.70;;;;;;4959894;29;20488;-65
2022/06/26 07:53:33;;;;;;;1.53;1.10;;;31.00;79.90;;;;;;4962636;29;20463;-65
2022/06/26 07:56:00;;;;;;;1.10;1.10;;;31.20;81.60;;;;;;4962668;29;20463;-65
2022/06/26 07:58:27;;;;;;;0.90;0.90;;;31.30;77.00;;;;;;4959720;29;20578;-66
2022/06/26 08:00:55;;;;;;;1.00;1.00;;;31.00;76.70;;;;;;4959531;29;20501;-66
2022/06/26 08:03:21;;;;;;;1.00;1.00;;;31.10;76.80;;;;;;4959363;29;20450;-66
2022/06/26 08:05:48;;;;;;;1.10;1.10;;;30.90;76.70;;;;;;4959079;28;20467;-65
2022/06/26 08:08:15;;;;;;;1.47;1.10;;;30.70;77.40;;;;;;4959289;29;20459;-65
2022/06/26 08:10:42;;;;;;;2.47;1.00;;;31.00;78.20;;;;;;4958483;29;20486;-65
2022/06/26 08:13:09;;;;;;;1.70;1.13;;;31.10;75.80;;;;;;4958802;29;20459;-65
2022/06/26 08:15:36;;;;;;;1.83;1.20;;;31.20;76.10;;;;;;4958297;29;20514;-65
2022/06/26 08:18:04;;;;;;;1.00;1.00;;;30.90;77.60;;;;;;4959546;29;20462;-65
2022/06/26 08:20:31;;;;;;;0.90;0.90;;;31.00;75.60;;;;;;4958454;29;20475;-65
2022/06/26 08:22:58;;;;;;;1.30;1.10;;;30.80;78.00;;;;;;4958170;29;20948;-65
2022/06/26 08:25:25;;;;;;;1.00;1.00;;;30.80;77.30;;;;;;4958142;29;20942;-65
2022/06/26 08:27:52;;;;;;;1.03;1.03;;;31.40;74.50;;;;;;4958049;29;21013;-65
2022/06/26 08:30:19;;;;;;;1.00;1.00;;;32.00;74.90;;;;;;4957529;28;20986;-65
2022/06/26 08:32:46;;;;;;;0.90;0.90;;;32.60;72.90;;;;;;4957710;29;21042;-65
2022/06/26 08:35:14;;;;;;;0.90;0.90;;;32.60;70.60;;;;;;4958602;29;20526;-65
2022/06/26 08:37:41;;;;;;;1.37;0.83;;;32.70;68.60;;;;;;4958557;29;20455;-65
2022/06/26 08:40:09;;;;;;;1.27;1.00;;;32.60;70.40;;;;;;4958332;29;20515;-65
2022/06/26 08:42:39;;;;;;;0.80;0.80;;;32.80;69.30;;;;;;4958046;28;20455;-64
2022/06/26 08:45:07;;;;;;;0.93;0.93;;;32.70;70.30;;;;;;4957780;28;20959;-66
2022/06/26 08:47:37;;;;;;;1.20;1.20;;;33.10;69.40;;;;;;4958014;29;20514;-66
2022/06/26 08:50:05;;;;;;;1.13;1.10;;;33.30;68.70;;;;;;4957943;28;20468;-66
2022/06/26 08:52:34;;;;;;;1.13;1.10;;;33.30;67.30;;;;;;4957495;28;20479;-66
2022/06/26 08:55:02;;;;;;;2.97;1.00;;;33.70;67.80;;;;;;4957906;29;20462;-66
2022/06/26 08:57:29;;;;;;;1.20;1.20;;;33.90;66.40;;;;;;4957806;29;20459;-66
2022/06/26 08:59:56;;;;;;;1.20;1.20;;;34.30;67.40;;;;;;4957851;29;20514;-66
2022/06/26 09:02:23;;;;;;;0.97;0.97;;;34.50;66.00;;;;;;4957595;29;20490;-66
2022/06/26 09:04:49;;;;;;;1.00;1.00;;;34.40;68.10;;;;;;4957736;29;20455;-66
2022/06/26 09:07:18;;;;;;;1.70;1.53;;;34.50;64.60;;;;;;4957709;29;20455;-66
2022/06/26 09:09:46;;;;;;;1.00;1.00;;;34.40;64.00;;;;;;4957533;29;20462;-66
2022/06/26 09:12:13;;;;;;;1.20;1.20;;;34.90;63.60;;;;;;4957373;28;20491;-66
2022/06/26 09:14:39;;;;;;;1.10;1.10;;;34.90;63.00;;;;;;4957349;29;20998;-66
2022/06/26 09:17:06;;;;;;;1.13;1.13;;;33.90;64.80;;;;;;4957575;28;20490;-66
2022/06/26 09:19:36;;;;;;;1.80;1.20;;;33.80;65.90;;;;;;4957448;29;20459;-66
2022/06/26 09:22:07;;;;;;;1.73;1.00;;;34.00;68.80;;;;;;4957414;29;20530;-67
2022/06/26 09:24:36;;;;;;;1.20;1.10;;;34.00;66.10;;;;;;4957384;29;20487;-66
2022/06/26 09:27:10;;;;;;;1.43;1.03;;;34.50;66.20;;;;;;4957187;29;20510;-66
2022/06/26 09:29:37;;;;;;;1.17;1.17;;;35.40;62.40;;;;;;4956947;29;20923;-66
2022/06/26 09:32:11;;;;;;;2.00;1.27;;;35.30;61.70;;;;;;4957070;29;20542;-66
2022/06/26 09:34:38;;;;;;;0.97;0.97;;;35.00;61.00;;;;;;4957011;29;20459;-66
2022/06/26 09:37:06;;;;;;;1.13;1.13;;;34.90;61.80;;;;;;4957132;29;20537;-66
2022/06/26 09:39:34;;;;;;;1.10;1.10;;;35.30;59.40;;;;;;4956955;29;20486;-66
2022/06/26 09:42:16;;;;;;;1.63;1.53;;;35.20;61.70;;;;;;4956243;28;20982;-66
2022/06/26 09:44:45;;;;;;;1.30;1.20;;;35.00;64.30;;;;;;4956622;28;20911;-66
2022/06/26 09:47:23;;;;;;;1.20;1.20;;;35.20;61.90;;;;;;4956954;28;20817;-66
2022/06/26 09:49:51;;;;;;;1.30;1.30;;;35.50;61.10;;;;;;4956749;28;20847;-66
2022/06/26 09:52:18;;;;;;;1.00;1.00;;;35.70;61.90;;;;;;4957466;28;20509;-66
2022/06/26 09:54:46;;;;;;;1.90;1.20;;;36.20;61.50;;;;;;4956613;29;20947;-66
2022/06/26 09:57:15;;;;;;;1.87;1.77;;;36.10;59.40;;;;;;4956660;29;20828;-65
2022/06/26 09:59:42;;;;;;;0.97;0.97;;;36.30;59.00;;;;;;4956589;29;20455;-65
2022/06/26 10:07:41;;;;;;;0.90;0.90;;;36.40;57.70;;;;;;4956244;29;20910;-66
2022/06/26 10:10:08;;;;;;;1.47;1.30;;;36.30;59.10;;;;;;4956430;29;20510;-66
2022/06/26 10:12:37;;;;;;;1.20;1.10;;;36.20;59.60;;;;;;4957022;29;20534;-66
2022/06/26 10:15:06;;;;;;;2.17;1.20;;;36.50;58.50;;;;;;4956343;29;20455;-65
2022/06/26 10:17:47;;;;;;;1.10;1.10;;;37.00;58.00;;;;;;4956219;29;20584;-66
2022/06/26 10:20:19;;;;;;;1.30;1.30;;;36.70;55.60;;;;;;4956282;29;20443;-65
2022/06/26 10:22:47;;;;;;;1.10;1.00;;;36.90;57.90;;;;;;4956316;28;20491;-65
2022/06/26 10:25:22;;;;;;;2.10;1.30;;;36.30;56.20;;;;;;4956195;28;20448;-65
2022/06/26 10:27:51;;;;;;;1.00;1.00;;;36.30;57.10;;;;;;4956289;29;20443;-65
2022/06/26 10:30:19;;;;;;;0.80;0.80;;;36.40;57.10;;;;;;4955938;28;20943;-65
2022/06/26 10:32:46;;;;;;;1.27;1.27;;;36.50;58.50;;;;;;4956269;29;20537;-66
2022/06/26 10:35:15;;;;;;;1.30;1.20;;;36.50;58.10;;;;;;4956755;29;20451;-65
2022/06/26 10:37:44;;;;;;;1.10;1.10;;;36.30;57.90;;;;;;4956181;29;20455;-65
2022/06/26 10:42:52;;;;;;;2.77;1.10;;;36.50;57.10;;;;;;4956022;29;20466;-65
2022/06/26 10:43:06;;;;;;;0.90;0.90;;;36.30;57.90;;;;;;4955538;29;20551;-66
2022/06/26 10:45:36;;;;;;;3.30;1.00;;;36.50;59.80;;;;;;4955981;29;20455;-66
2022/06/26 10:48:05;;;;;;;1.40;1.40;;;36.60;57.40;;;;;;4955943;29;20480;-65
2022/06/26 10:50:34;;;;;;;1.17;1.10;;;37.20;56.30;;;;;;4958226;29;20475;-65
2022/06/26 10:53:17;;;;;;;1.30;1.27;;;37.20;55.60;;;;;;4977444;29;20427;-66
2022/06/26 10:55:46;;;;;;;1.70;1.17;;;36.90;55.50;;;;;;4962966;29;20443;-66
2022/06/26 10:58:20;;;;;;;1.37;1.30;;;36.90;54.90;;;;;;4956895;29;20451;-65
2022/06/26 11:00:47;;;;;;;1.17;1.00;;;36.20;55.60;;;;;;4955638;29;20536;-65
2022/06/26 11:03:15;;;;;;;1.03;0.90;;;36.60;55.30;;;;;;4955907;29;20455;-66
2022/06/26 11:05:51;;;;;;;1.10;1.10;;;37.00;55.90;;;;;;4955613;29;20461;-65
2022/06/26 11:08:23;;;;;;;1.10;1.00;;;36.50;56.10;;;;;;4955535;29;20526;-65
2022/06/26 11:10:49;;;;;;;1.17;0.90;;;36.20;56.90;;;;;;4955374;29;20475;-65
2022/06/26 11:13:18;;;;;;;1.13;1.13;;;35.30;57.50;;;;;;4957995;28;20455;-65
2022/06/26 11:15:45;;;;;;;1.17;1.17;;;34.90;57.80;;;;;;4959796;29;20458;-65
2022/06/26 11:18:11;;;;;;;1.20;1.20;;;34.40;59.00;;;;;;4958837;29;20793;-65
2022/06/26 11:20:50;;;;;;;0.90;0.80;;;33.90;59.50;;;;;;4957086;29;20527;-65
2022/06/26 11:23:22;;;;;;;1.47;1.47;;;33.40;59.20;;;;;;4956219;29;20446;-65
2022/06/26 11:25:51;;;;;;;1.10;1.10;;;33.10;62.00;;;;;;4955847;28;20444;-65
2022/06/26 11:28:19;;;;;;;1.10;1.10;;;32.40;61.10;;;;;;4955758;28;20459;-65
2022/06/26 11:30:48;;;;;;;1.30;1.20;;;32.00;65.00;;;;;;4955355;29;20475;-65
2022/06/26 11:33:24;;;;;;;1.23;1.13;;;31.70;65.20;;;;;;4955323;28;20490;-65
2022/06/26 11:35:51;;;;;;;1.30;1.30;;;31.40;65.60;;;;;;4955711;29;20431;-65
2022/06/26 11:38:19;;;;;;;1.50;1.40;;;31.20;66.30;;;;;;4955775;28;20871;-65
2022/06/26 11:40:46;;;;;;;1.10;1.10;;;31.20;65.40;;;;;;4955608;28;20510;-65
2022/06/26 11:43:14;;;;;;;1.30;1.30;;;31.00;68.60;;;;;;4955285;29;21017;-66
2022/06/26 11:45:43;;;;;;;1.60;1.37;;;30.90;68.10;;;;;;4955261;29;20856;-65
2022/06/26 11:48:13;;;;;;;1.53;1.43;;;30.80;69.70;;;;;;4955558;29;20927;-65
2022/06/26 11:50:40;;;;;;;2.50;1.20;;;31.00;71.20;;;;;;4955265;29;20471;-65
2022/06/26 11:53:07;;;;;;;1.27;1.17;;;31.10;68.20;;;;;;4954921;28;21061;-65
2022/06/26 11:55:44;;;;;;;1.63;1.23;;;31.30;71.80;;;;;;4955302;29;20463;-66
2022/06/26 11:58:11;;;;;;;1.57;1.47;;;31.30;69.80;;;;;;4955383;28;20475;-65
2022/06/26 12:00:38;;;;;;;1.03;1.03;;;31.50;67.30;;;;;;4955047;28;20545;-65
2022/06/26 12:03:06;;;;;;;1.20;1.20;;;31.10;67.50;;;;;;4955161;29;20483;-65
2022/06/26 12:05:33;;;;;;;1.40;1.40;;;31.20;70.70;;;;;;4956299;28;20847;-65
2022/06/26 12:08:00;;;;;;;1.40;1.30;;;31.40;71.30;;;;;;4958765;29;20467;-65
2022/06/26 12:10:32;;;;;;;1.40;1.30;;;31.70;68.50;;;;;;4958711;29;20464;-65
2022/06/26 12:13:00;;;;;;;1.20;1.20;;;31.70;67.80;;;;;;4958772;29;20490;-65
2022/06/26 12:15:29;;;;;;;1.20;1.20;;;31.50;67.10;;;;;;4959139;29;20897;-65
2022/06/26 12:17:58;;;;;;;1.20;1.20;;;31.40;71.20;;;;;;4958138;29;20860;-65
2022/06/26 12:20:27;;;;;;;1.73;1.43;;;31.30;70.20;;;;;;4958550;29;20462;-65
2022/06/26 12:22:56;;;;;;;1.30;1.30;;;31.60;71.70;;;;;;4958631;29;20462;-65
2022/06/26 12:25:27;;;;;;;1.37;1.37;;;31.60;70.60;;;;;;4959512;29;20464;-65
2022/06/26 12:27:54;;;;;;;2.40;1.10;;;31.80;68.00;;;;;;4958563;28;20523;-65
2022/06/26 12:30:22;;;;;;;1.40;1.30;;;31.60;70.10;;;;;;4958419;29;20455;-65
2022/06/26 12:32:50;;;;;;;1.30;1.30;;;31.70;69.40;;;;;;4958345;29;20475;-65
2022/06/26 12:35:16;;;;;;;1.03;1.03;;;31.80;69.70;;;;;;4958250;29;20455;-65
2022/06/26 12:37:45;;;;;;;1.30;1.30;;;32.00;70.20;;;;;;4958187;29;20456;-66
2022/06/26 12:40:12;;;;;;;1.20;1.20;;;32.00;67.10;;;;;;4958079;29;20558;-65
2022/06/26 12:42:39;;;;;;;1.10;1.10;;;32.00;68.30;;;;;;4958045;29;20455;-65
2022/06/26 12:45:07;;;;;;;1.17;1.17;;;31.90;67.90;;;;;;4958099;29;20871;-65
2022/06/26 12:47:34;;;;;;;1.10;1.10;;;32.00;68.80;;;;;;4958062;28;20466;-65
2022/06/26 12:50:00;;;;;;;1.13;1.13;;;32.20;65.20;;;;;;4957998;29;20463;-65
2022/06/26 12:52:27;;;;;;;1.13;1.13;;;32.00;66.90;;;;;;4957850;29;20479;-65
2022/06/26 12:54:55;;;;;;;1.50;1.00;;;32.10;68.00;;;;;;4957966;29;20978;-65
2022/06/26 12:57:22;;;;;;;1.03;1.03;;;32.00;68.20;;;;;;4959337;29;20459;-65
2022/06/26 12:59:48;;;;;;;1.27;1.27;;;31.90;65.40;;;;;;4958120;29;20451;-65
2022/06/26 13:02:15;;;;;;;1.10;1.10;;;32.00;66.50;;;;;;4957708;29;20488;-65
2022/06/26 13:04:42;;;;;;;1.40;1.40;;;31.90;68.00;;;;;;4957811;29;20451;-65
2022/06/26 13:07:08;;;;;;;1.40;1.30;;;31.90;65.30;;;;;;4957389;29;20955;-65
2022/06/26 13:09:35;;;;;;;1.37;1.27;;;32.00;66.90;;;;;;4957701;29;20818;-65
2022/06/26 13:12:04;;;;;;;1.07;1.07;;;32.20;63.80;;;;;;4957532;29;20486;-65
2022/06/26 13:14:30;;;;;;;1.40;1.20;;;32.30;66.70;;;;;;4957312;28;20466;-65
2022/06/26 13:16:57;;;;;;;2.43;2.23;;;31.90;64.50;;;;;;4956849;28;20462;-65
2022/06/26 13:19:24;;;;;;;1.00;1.00;;;31.70;65.60;;;;;;4957384;29;20482;-65
2022/06/26 13:21:52;;;;;;;1.23;1.23;;;31.80;67.20;;;;;;4957391;29;20499;-65
2022/06/26 13:24:19;;;;;;;1.30;1.30;;;31.90;68.50;;;;;;4957449;29;20487;-65
2022/06/26 13:26:47;;;;;;;1.20;1.20;;;32.10;66.20;;;;;;4957440;29;20459;-65
2022/06/26 13:29:15;;;;;;;1.10;1.10;;;32.20;66.80;;;;;;4957088;29;20904;-65
2022/06/26 13:31:42;;;;;;;1.00;1.00;;;32.30;69.00;;;;;;4957456;29;20986;-65
2022/06/26 13:34:08;;;;;;;1.83;1.23;;;32.30;67.80;;;;;;4957218;29;20459;-66
2022/06/26 13:36:35;;;;;;;1.60;1.60;;;32.30;66.30;;;;;;4957099;29;20463;-65
2022/06/26 13:39:03;;;;;;;1.80;1.70;;;32.50;65.10;;;;;;4957127;29;20522;-65
2022/06/26 13:41:31;;;;;;;1.20;1.20;;;32.40;67.20;;;;;;4957358;29;20562;-65
2022/06/26 13:43:58;;;;;;;1.50;1.40;;;32.50;67.40;;;;;;4957445;29;20506;-65
2022/06/26 13:46:26;;;;;;;1.13;1.13;;;32.30;66.10;;;;;;4957211;28;20510;-65
2022/06/26 13:48:52;;;;;;;0.93;0.93;;;32.50;66.50;;;;;;4957026;29;20455;-65
2022/06/26 13:51:19;;;;;;;1.40;1.30;;;32.50;65.40;;;;;;4956847;29;20480;-66
2022/06/26 13:53:46;;;;;;;1.10;1.10;;;32.40;65.00;;;;;;4956859;29;20511;-65
2022/06/26 13:56:13;;;;;;;1.27;1.27;;;32.50;66.20;;;;;;4956831;29;20466;-65
2022/06/26 13:58:40;;;;;;;1.40;1.40;;;32.50;67.30;;;;;;4956898;29;20461;-65
2022/06/26 14:01:06;;;;;;;1.50;1.40;;;32.30;65.70;;;;;;4956432;29;20490;-65
2022/06/26 14:03:34;;;;;;;1.47;1.37;;;32.30;68.20;;;;;;4956353;29;20456;-65
2022/06/26 14:06:01;;;;;;;1.50;1.40;;;32.40;67.70;;;;;;4956728;28;20459;-65
2022/06/26 14:08:28;;;;;;;1.20;1.20;;;32.30;65.50;;;;;;4956380;29;20459;-65
2022/06/26 14:10:55;;;;;;;1.17;1.17;;;32.10;68.20;;;;;;4956304;29;21018;-65
2022/06/26 14:13:22;;;;;;;1.43;1.33;;;32.30;68.60;;;;;;4957346;29;20530;-65
2022/06/26 14:15:48;;;;;;;2.33;1.37;;;32.00;66.80;;;;;;4956287;29;20843;-65
2022/06/26 14:18:16;;;;;;;1.60;1.50;;;32.30;67.60;;;;;;4956619;29;20467;-65
2022/06/26 14:20:44;;;;;;;1.40;1.40;;;32.30;69.00;;;;;;4956361;29;20479;-65
2022/06/26 14:25:59;;;;;;;1.20;1.20;;;32.30;66.70;;;;;;4956382;29;20498;-65
2022/06/26 14:28:27;;;;;;;1.30;1.20;;;32.10;67.30;;;;;;4957893;28;20851;-65
2022/06/26 14:30:55;;;;;;;1.60;1.50;;;31.70;67.10;;;;;;4958941;28;20983;-65
2022/06/26 14:33:22;;;;;;;1.30;1.30;;;31.70;70.10;;;;;;4967904;29;20482;-65
2022/06/26 14:35:50;;;;;;;1.50;1.50;;;31.50;69.00;;;;;;4973671;29;20455;-65
2022/06/26 14:38:18;;;;;;;1.33;1.33;;;31.60;68.60;;;;;;4958027;29;20820;-65
2022/06/26 14:40:45;;;;;;;1.53;1.43;;;31.70;67.20;;;;;;4956535;29;20475;-65
2022/06/26 14:43:12;;;;;;;1.63;1.53;;;31.90;69.30;;;;;;4956781;29;20510;-65
2022/06/26 14:45:39;;;;;;;1.10;1.10;;;32.00;68.60;;;;;;4956338;29;20467;-65
2022/06/26 14:48:07;;;;;;;1.60;1.50;;;32.20;67.10;;;;;;4956415;29;20455;-65
2022/06/26 14:50:34;;;;;;;1.30;1.30;;;32.00;67.00;;;;;;4956163;29;20476;-65
2022/06/26 14:53:02;;;;;;;1.20;1.20;;;32.10;68.90;;;;;;4955985;29;20483;-66
2022/06/26 14:55:29;;;;;;;1.20;1.20;;;31.80;69.00;;;;;;4956265;29;20462;-65
2022/06/26 14:57:56;;;;;;;1.37;1.37;;;31.80;69.00;;;;;;4956089;29;20451;-65
2022/06/26 15:00:22;;;;;;;1.30;1.20;;;31.70;69.30;;;;;;4962049;29;20522;-65
2022/06/26 15:02:49;;;;;;;3.13;1.40;;;31.70;69.00;;;;;;4977391;29;20418;-66
2022/06/26 15:05:16;;;;;;;1.50;1.40;;;31.90;69.90;;;;;;4967043;28;20448;-66
2022/06/26 15:07:43;;;;;;;1.50;1.40;;;32.00;69.00;;;;;;4956483;29;20503;-66
2022/06/26 15:10:12;;;;;;;1.37;1.37;;;32.10;68.80;;;;;;4955831;29;20451;-65
2022/06/26 15:12:39;;;;;;;1.33;1.33;;;32.20;68.60;;;;;;4955851;29;20838;-65
2022/06/26 15:15:07;;;;;;;1.03;1.03;;;32.10;68.50;;;;;;4955856;29;20515;-65
2022/06/26 15:17:34;;;;;;;1.10;1.10;;;32.00;67.60;;;;;;4955686;29;20462;-65
2022/06/26 15:20:00;;;;;;;1.40;1.40;;;31.90;69.00;;;;;;4955698;29;20463;-66
2022/06/26 15:22:27;;;;;;;1.70;1.60;;;31.80;68.60;;;;;;4955315;29;20479;-66
2022/06/26 15:24:54;;;;;;;1.47;1.43;;;31.80;68.50;;;;;;4955501;29;20459;-69
2022/06/26 15:27:22;;;;;;;1.53;1.43;;;31.50;68.10;;;;;;4955285;28;20866;-65
2022/06/26 15:29:49;;;;;;;1.40;1.40;;;31.40;68.10;;;;;;4955557;28;20455;-65
2022/06/26 15:32:16;;;;;;;1.20;1.20;;;31.20;69.20;;;;;;4955397;29;20483;-65
2022/06/26 15:34:44;;;;;;;1.50;1.50;;;31.10;69.40;;;;;;4955397;29;20462;-65
2022/06/26 15:37:11;;;;;;;1.27;1.27;;;31.10;71.00;;;;;;4955815;29;20468;-65
2022/06/26 15:39:38;;;;;;;1.17;1.17;;;31.20;69.10;;;;;;4956366;28;20459;-65
2022/06/26 15:42:06;;;;;;;1.20;1.20;;;31.10;70.00;;;;;;4959122;29;20533;-65
2022/06/26 15:44:34;;;;;;;1.00;1.00;;;31.10;70.70;;;;;;4959124;28;20471;-65
2022/06/26 15:47:00;;;;;;;1.40;1.40;;;31.10;70.20;;;;;;4958991;29;20455;-65
2022/06/26 15:49:27;;;;;;;1.57;1.50;;;31.20;70.10;;;;;;4958843;29;20492;-65
2022/06/26 15:51:54;;;;;;;1.10;1.10;;;31.10;70.90;;;;;;4958878;29;20475;-65
2022/06/26 15:54:20;;;;;;;3.03;1.50;;;31.10;70.90;;;;;;4958414;29;20913;-65
2022/06/26 15:56:47;;;;;;;1.23;1.23;;;31.00;70.10;;;;;;4958896;29;20461;-65
2022/06/26 15:59:14;;;;;;;1.20;1.20;;;31.00;70.20;;;;;;4958677;29;20455;-65
2022/06/26 16:01:42;;;;;;;1.90;1.70;;;31.00;70.60;;;;;;4958240;29;20534;-65
2022/06/26 16:04:09;;;;;;;1.50;1.50;;;31.10;70.60;;;;;;4958784;29;20502;-65
2022/06/26 16:06:36;;;;;;;1.20;1.20;;;31.10;70.50;;;;;;4958630;29;20821;-65
2022/06/26 16:09:03;;;;;;;4.63;3.70;;;31.00;70.90;;;;;;4958679;29;20462;-64
2022/06/26 16:11:30;;;;;;;2.10;2.00;;;30.90;70.50;;;;;;4958508;29;20534;-65
2022/06/26 16:13:57;;;;;;;1.30;1.30;;;31.00;71.30;;;;;;4959001;29;20978;-64
2022/06/26 16:16:25;;;;;;;1.40;1.40;;;31.00;69.70;;;;;;4958389;29;20456;-65
2022/06/26 16:18:53;;;;;;;2.20;2.10;;;30.90;69.70;;;;;;4958379;29;20515;-65
2022/06/26 16:21:19;;;;;;;1.30;1.30;;;31.00;71.60;;;;;;4957905;29;21011;-65
2022/06/26 16:26:32;;;;;;;1.60;1.50;;;31.00;71.20;;;;;;4958287;29;20415;-65
2022/06/26 16:29:01;;;;;;;5.03;1.60;;;31.00;72.10;;;;;;4959892;29;20510;-65
2022/06/26 16:31:29;;;;;;;2.00;1.90;;;30.90;73.40;;;;;;4958415;29;20483;-65
2022/06/26 16:33:58;;;;;;;2.10;1.60;;;30.80;73.60;;;;;;4958217;29;20479;-64
2022/06/26 16:36:27;;;;;;;1.30;1.30;;;30.80;72.50;;;;;;4958209;29;20459;-65
2022/06/26 16:38:54;;;;;;;1.40;1.40;;;30.80;73.70;;;;;;4958065;29;20466;-65
2022/06/26 16:41:21;;;;;;;1.60;1.50;;;30.70;73.40;;;;;;4958057;29;20608;-65
2022/06/26 16:43:48;;;;;;;2.03;1.93;;;30.80;73.70;;;;;;4958156;29;20451;-65
2022/06/26 16:46:15;;;;;;;2.53;1.33;;;30.70;73.30;;;;;;4958041;29;20463;-66
2022/06/26 16:48:42;;;;;;;1.30;1.30;;;30.60;74.30;;;;;;4957974;29;20459;-65
2022/06/26 16:51:11;;;;;;;1.60;1.50;;;30.60;73.80;;;;;;4957737;28;20475;-65
2022/06/26 16:53:38;;;;;;;1.70;1.60;;;30.60;74.70;;;;;;4956915;29;20826;-65
2022/06/26 16:56:05;;;;;;;1.50;1.50;;;30.60;74.40;;;;;;4957906;29;20467;-69
2022/06/26 16:58:32;;;;;;;1.60;1.50;;;30.60;74.70;;;;;;4957562;28;20459;-65
2022/06/26 17:00:58;;;;;;;1.80;1.70;;;30.70;74.10;;;;;;4958100;29;20491;-65
2022/06/26 17:03:25;;;;;;;1.60;1.60;;;30.50;74.40;;;;;;4958193;29;20456;-66